createdAt,value
2023-05-22T00:00:37.396Z,18.10
2023-05-22T00:03:43.080Z,18.10
2023-05-22T00:06:45.152Z,18.10
2023-05-22T00:09:47.011Z,18.00
2023-05-22T00:12:48.869Z,17.80
2023-05-22T00:15:50.785Z,17.90
2023-05-22T00:18:52.846Z,17.80
2023-05-22T00:21:57.395Z,17.80
2023-05-22T00:24:59.484Z,17.80
2023-05-22T00:28:07.785Z,17.80
2023-05-22T00:31:10.055Z,17.70
2023-05-22T00:34:13.003Z,17.80
2023-05-22T00:37:14.960Z,17.70
2023-05-22T00:40:17.223Z,17.70
2023-05-22T00:43:19.282Z,17.70
2023-05-22T00:46:22.246Z,17.60
2023-05-22T00:49:24.464Z,17.60
2023-05-22T00:52:27.727Z,17.50
2023-05-22T00:55:29.767Z,17.40
2023-05-22T00:58:31.802Z,17.50
2023-05-22T01:01:36.926Z,17.40
2023-05-22T01:04:39.318Z,17.50
2023-05-22T01:07:41.469Z,17.40
2023-05-22T01:10:43.337Z,17.40
2023-05-22T01:14:14.986Z,17.30
2023-05-22T01:17:49.751Z,17.30
2023-05-22T01:21:03.194Z,17.20
2023-05-22T01:24:26.877Z,17.30
2023-05-22T01:28:02.548Z,17.30
2023-05-22T01:31:15.684Z,17.30
2023-05-22T01:34:18.734Z,17.20
2023-05-22T01:37:24.426Z,17.20
2023-05-22T01:40:26.899Z,17.20
2023-05-22T01:43:29.705Z,17.10
2023-05-22T01:46:31.793Z,17.10
2023-05-22T01:49:36.557Z,17.10
2023-05-22T01:52:43.878Z,17.10
2023-05-22T01:56:00.987Z,17.10
2023-05-22T01:59:40.369Z,17.00
2023-05-22T02:02:49.161Z,17.00
2023-05-22T02:05:55.019Z,17.00
2023-05-22T02:08:58.283Z,16.90
2023-05-22T02:12:01.463Z,16.90
2023-05-22T02:15:04.921Z,17.00
2023-05-22T02:18:10.257Z,17.00
2023-05-22T02:21:12.186Z,17.00
2023-05-22T02:24:14.427Z,16.90
2023-05-22T02:27:17.416Z,16.90
2023-05-22T02:30:19.822Z,16.90
2023-05-22T02:33:22.096Z,16.80
2023-05-22T02:36:23.836Z,16.70
2023-05-22T02:39:28.689Z,16.70
2023-05-22T02:42:30.482Z,16.70
2023-05-22T02:45:33.752Z,16.50
2023-05-22T02:48:35.587Z,16.60
2023-05-22T02:51:37.382Z,16.60
2023-05-22T02:54:39.209Z,16.60
2023-05-22T02:57:41.323Z,16.60
2023-05-22T03:00:43.383Z,16.50
2023-05-22T03:03:45.290Z,16.50
2023-05-22T03:06:47.338Z,16.40
2023-05-22T03:09:49.156Z,16.40
2023-05-22T03:12:54.599Z,16.40
2023-05-22T03:15:56.502Z,16.40
2023-05-22T03:19:28.055Z,16.40
2023-05-22T03:22:30.051Z,16.40
2023-05-22T03:25:31.807Z,16.40
2023-05-22T03:28:40.743Z,16.40
2023-05-22T03:31:42.841Z,16.40
2023-05-22T03:34:49.383Z,16.30
2023-05-22T03:37:51.202Z,16.30
2023-05-22T03:40:54.576Z,16.20
2023-05-22T03:43:57.288Z,16.20
2023-05-22T03:47:03.969Z,16.10
2023-05-22T03:50:06.036Z,16.10
2023-05-22T03:53:07.913Z,16.10
2023-05-22T03:56:09.927Z,16.10
2023-05-22T03:59:11.889Z,16.10
2023-05-22T04:02:16.763Z,16.10
2023-05-22T04:05:18.850Z,16.10
2023-05-22T04:08:20.891Z,16.00
2023-05-22T04:11:22.800Z,16.10
2023-05-22T04:14:24.806Z,16.00
2023-05-22T04:17:33.706Z,15.90
2023-05-22T04:20:36.265Z,16.00
2023-05-22T04:23:38.722Z,16.00
2023-05-22T04:26:42.448Z,16.00
2023-05-22T04:29:45.989Z,16.00
2023-05-22T04:32:48.366Z,16.00
2023-05-22T04:35:52.366Z,16.00
2023-05-22T04:38:54.785Z,16.00
2023-05-22T04:41:58.275Z,16.00
2023-05-22T04:45:00.952Z,15.90
2023-05-22T04:48:03.694Z,15.90
2023-05-22T04:51:06.266Z,15.80
2023-05-22T04:54:08.181Z,15.90
2023-05-22T04:57:10.118Z,15.80
2023-05-22T05:00:15.821Z,15.80
2023-05-22T05:03:17.884Z,15.80
2023-05-22T05:06:30.318Z,15.70
2023-05-22T05:09:32.242Z,15.70
2023-05-22T05:12:34.208Z,15.70
2023-05-22T05:15:36.101Z,15.80
2023-05-22T05:18:42.798Z,15.80
2023-05-22T05:21:45.209Z,15.70
2023-05-22T05:24:47.392Z,15.70
2023-05-22T05:27:57.645Z,15.70
2023-05-22T05:31:03.295Z,15.70
2023-05-22T05:34:05.143Z,15.70
2023-05-22T05:37:07.128Z,15.70
2023-05-22T05:40:09.784Z,15.80
2023-05-22T05:43:14.085Z,15.80
2023-05-22T05:46:15.965Z,15.70
2023-05-22T05:49:20.065Z,15.70
2023-05-22T05:52:21.874Z,15.70
2023-05-22T05:55:25.036Z,15.60
2023-05-22T05:58:26.843Z,15.70
2023-05-22T06:01:31.270Z,15.70
2023-05-22T06:04:33.333Z,15.70
2023-05-22T06:07:38.050Z,15.70
2023-05-22T06:10:40.303Z,15.70
2023-05-22T06:13:42.476Z,15.70
2023-05-22T06:16:45.923Z,15.70
2023-05-22T06:19:48.012Z,15.80
2023-05-22T06:22:49.974Z,15.70
2023-05-22T06:25:51.957Z,15.60
2023-05-22T06:29:00.888Z,15.60
2023-05-22T06:32:07.997Z,15.60
2023-05-22T06:35:10.582Z,15.70
2023-05-22T06:38:12.512Z,15.70
2023-05-22T06:41:14.377Z,15.70
2023-05-22T06:44:17.004Z,15.70
2023-05-22T06:47:19.091Z,15.70
2023-05-22T06:50:22.352Z,15.70
2023-05-22T06:53:25.484Z,15.60
2023-05-22T06:56:31.665Z,15.60
2023-05-22T06:59:33.432Z,15.70
2023-05-22T07:02:36.448Z,15.70
2023-05-22T07:05:38.493Z,15.70
2023-05-22T07:08:41.216Z,15.70
2023-05-22T07:11:44.005Z,15.70
2023-05-22T07:14:46.784Z,15.80
2023-05-22T07:17:49.452Z,15.70
2023-05-22T07:20:51.520Z,15.60
2023-05-22T07:23:53.361Z,15.70
2023-05-22T07:26:55.818Z,15.70
2023-05-22T07:30:00.080Z,15.60
2023-05-22T07:33:02.135Z,15.60
2023-05-22T07:36:04.490Z,15.70
2023-05-22T07:39:13.250Z,15.80
2023-05-22T07:42:15.165Z,15.60
2023-05-22T07:45:17.088Z,15.60
2023-05-22T07:48:19.071Z,15.50
2023-05-22T07:51:20.971Z,15.60
2023-05-22T07:54:22.820Z,15.60
2023-05-22T07:57:25.134Z,15.70
2023-05-22T08:00:27.423Z,15.70
2023-05-22T08:06:31.627Z,15.70
2023-05-22T08:09:34.348Z,15.70
2023-05-22T08:12:36.424Z,15.60
2023-05-22T08:15:38.494Z,15.70
2023-05-22T08:18:40.540Z,15.70
2023-05-22T08:21:42.553Z,15.80
2023-05-22T08:24:44.497Z,15.80
2023-05-22T08:27:46.344Z,15.80
2023-05-22T08:30:48.674Z,15.80
2023-05-22T08:33:50.644Z,15.80
2023-05-22T08:36:52.535Z,15.90
2023-05-22T08:39:54.419Z,15.90
2023-05-22T08:42:57.486Z,15.90
2023-05-22T08:46:09.447Z,15.90
2023-05-22T08:49:13.061Z,16.00
2023-05-22T08:52:32.450Z,16.00
2023-05-22T08:55:34.899Z,16.10
2023-05-22T08:58:38.091Z,16.10
2023-05-22T09:01:40.150Z,16.10
2023-05-22T09:04:43.228Z,16.20
2023-05-22T09:07:45.758Z,16.20
2023-05-22T09:10:48.682Z,16.20
2023-05-22T09:13:51.814Z,16.30
2023-05-22T09:16:56.512Z,16.30
2023-05-22T09:20:00.567Z,16.30
2023-05-22T09:23:11.213Z,16.30
2023-05-22T09:26:12.974Z,16.30
2023-05-22T09:29:15.845Z,16.30
2023-05-22T09:32:18.451Z,16.30
2023-05-22T09:35:20.874Z,16.40
2023-05-22T09:38:26.525Z,16.40
2023-05-22T09:41:30.625Z,16.40
2023-05-22T09:44:32.798Z,16.40
2023-05-22T09:47:35.289Z,16.50
2023-05-22T09:50:40.090Z,16.50
2023-05-22T09:53:46.580Z,16.50
2023-05-22T09:56:52.738Z,16.60
2023-05-22T09:59:59.061Z,16.60
2023-05-22T10:03:09.494Z,16.50
2023-05-22T10:06:13.501Z,16.60
2023-05-22T10:09:19.556Z,16.60
2023-05-22T10:12:24.974Z,16.70
2023-05-22T10:15:27.405Z,16.70
2023-05-22T10:18:29.557Z,16.70
2023-05-22T10:21:32.792Z,16.80
2023-05-22T10:24:35.857Z,16.80
2023-05-22T10:27:45.312Z,16.90
2023-05-22T10:31:06.766Z,16.90
2023-05-22T10:34:12.530Z,16.90
2023-05-22T10:37:29.107Z,16.90
2023-05-22T10:40:33.829Z,16.90
2023-05-22T10:43:42.718Z,16.90
2023-05-22T10:46:50.359Z,16.90
2023-05-22T10:50:12.152Z,16.90
2023-05-22T10:53:25.467Z,17.00
2023-05-22T10:56:36.058Z,17.10
2023-05-22T10:59:38.349Z,17.20
2023-05-22T11:02:45.595Z,17.20
2023-05-22T11:05:53.777Z,17.30
2023-05-22T11:08:58.359Z,17.20
2023-05-22T11:12:27.594Z,17.20
2023-05-22T11:15:33.361Z,17.40
2023-05-22T11:18:35.479Z,17.40
2023-05-22T11:21:52.314Z,17.50
2023-05-22T11:24:55.216Z,17.40
2023-05-22T11:27:59.266Z,17.50
2023-05-22T11:31:02.008Z,17.50
2023-05-22T11:34:04.226Z,17.70
2023-05-22T11:37:06.376Z,17.70
2023-05-22T11:40:09.319Z,17.70
2023-05-22T11:43:11.333Z,17.70
2023-05-22T11:46:14.850Z,17.80
2023-05-22T11:49:17.387Z,17.80
2023-05-22T11:52:19.785Z,17.90
2023-05-22T11:55:23.217Z,18.00
2023-05-22T11:58:31.059Z,18.00
2023-05-22T12:01:33.332Z,18.10
2023-05-22T12:04:44.377Z,18.10
2023-05-22T12:07:46.471Z,18.00
2023-05-22T12:10:50.574Z,18.10
2023-05-22T12:14:01.156Z,18.10
2023-05-22T12:17:06.530Z,18.10
2023-05-22T12:20:13.643Z,18.10
2023-05-22T12:23:33.865Z,18.20
2023-05-22T12:26:37.541Z,18.30
2023-05-22T12:29:40.953Z,18.30
2023-05-22T12:32:51.637Z,18.30
2023-05-22T12:35:53.618Z,18.40
2023-05-22T12:38:57.594Z,18.50
2023-05-22T12:42:04.415Z,18.50
2023-05-22T12:45:06.848Z,18.50
2023-05-22T12:48:09.281Z,18.60
2023-05-22T12:51:13.558Z,18.60
2023-05-22T12:54:16.236Z,18.70
2023-05-22T12:57:18.217Z,18.80
2023-05-22T13:00:20.373Z,18.90
2023-05-22T13:03:22.455Z,18.90
2023-05-22T13:06:24.842Z,18.90
2023-05-22T13:09:26.972Z,19.00
2023-05-22T13:12:31.166Z,19.00
2023-05-22T13:15:33.429Z,19.10
2023-05-22T13:18:36.782Z,19.20
2023-05-22T13:21:38.494Z,19.20
2023-05-22T13:24:42.172Z,19.30
2023-05-22T13:27:44.006Z,19.30
2023-05-22T13:30:46.256Z,19.30
2023-05-22T13:33:48.184Z,19.30
2023-05-22T13:36:50.422Z,19.40
2023-05-22T13:39:52.300Z,19.30
2023-05-22T13:42:54.120Z,19.40
2023-05-22T13:45:55.935Z,19.40
2023-05-22T13:48:58.662Z,19.40
2023-05-22T13:52:01.816Z,19.50
2023-05-22T13:55:04.875Z,19.50
2023-05-22T13:58:06.894Z,19.60
2023-05-22T14:01:09.868Z,19.60
2023-05-22T14:04:11.918Z,19.60
2023-05-22T14:07:14.600Z,19.60
2023-05-22T14:10:16.450Z,19.70
2023-05-22T14:13:18.299Z,19.70
2023-05-22T14:16:22.445Z,19.80
2023-05-22T14:19:27.926Z,19.80
2023-05-22T14:22:30.602Z,19.80
2023-05-22T14:25:34.591Z,19.90
2023-05-22T14:28:36.349Z,19.90
2023-05-22T14:31:51.936Z,19.90
2023-05-22T14:34:54.772Z,20.00
2023-05-22T14:37:56.891Z,20.00
2023-05-22T14:40:58.709Z,20.10
2023-05-22T14:44:01.019Z,20.10
2023-05-22T14:47:03.000Z,20.00
2023-05-22T14:50:18.303Z,20.00
2023-05-22T14:53:23.464Z,20.00
2023-05-22T14:56:27.338Z,20.00
2023-05-22T14:59:29.132Z,20.00
2023-05-22T15:02:31.093Z,19.90
2023-05-22T15:05:33.140Z,19.90
2023-05-22T15:08:36.641Z,19.90
2023-05-22T15:11:38.443Z,19.90
2023-05-22T15:14:43.805Z,19.90
2023-05-22T15:17:46.183Z,19.90
2023-05-22T15:20:49.588Z,20.00
2023-05-22T15:23:51.650Z,19.90
2023-05-22T15:26:53.573Z,20.00
2023-05-22T15:29:56.270Z,19.90
2023-05-22T15:33:09.412Z,20.00
2023-05-22T15:36:12.545Z,20.00
2023-05-22T15:39:14.464Z,19.90
2023-05-22T15:42:16.476Z,19.90
2023-05-22T15:45:18.608Z,19.90
2023-05-22T15:48:20.917Z,19.90
2023-05-22T15:51:22.905Z,19.90
2023-05-22T15:54:27.049Z,19.90
2023-05-22T15:57:28.976Z,19.90
2023-05-22T16:00:32.376Z,19.90
2023-05-22T16:03:34.486Z,19.80
2023-05-22T16:06:36.726Z,19.80
2023-05-22T16:09:38.824Z,19.80
2023-05-22T16:12:41.561Z,19.80
2023-05-22T16:15:45.670Z,19.80
2023-05-22T16:18:47.639Z,19.80
2023-05-22T16:21:50.372Z,19.80
2023-05-22T16:24:52.255Z,19.80
2023-05-22T16:27:54.923Z,19.80
2023-05-22T16:30:56.828Z,19.80
2023-05-22T16:33:59.583Z,19.80
2023-05-22T16:37:01.400Z,19.80
2023-05-22T16:40:04.880Z,19.80
2023-05-22T16:43:09.889Z,19.70
2023-05-22T16:46:16.554Z,19.70
2023-05-22T16:49:18.400Z,19.70
2023-05-22T16:52:23.476Z,19.70
2023-05-22T16:55:25.766Z,19.80
2023-05-22T16:58:27.626Z,19.80
2023-05-22T17:01:29.905Z,19.70
2023-05-22T17:04:33.454Z,19.70
2023-05-22T17:07:35.294Z,19.70
2023-05-22T17:10:37.652Z,19.70
2023-05-22T17:13:39.501Z,19.70
2023-05-22T17:16:46.009Z,19.60
2023-05-22T17:19:48.215Z,19.60
2023-05-22T17:22:50.339Z,19.60
2023-05-22T17:25:52.181Z,19.60
2023-05-22T17:28:54.000Z,19.50
2023-05-22T17:31:55.841Z,19.50
2023-05-22T17:34:58.079Z,19.50
2023-05-22T17:38:00.140Z,19.60
2023-05-22T17:41:02.929Z,19.60
2023-05-22T17:44:04.921Z,19.60
2023-05-22T17:47:07.796Z,19.60
2023-05-22T17:50:12.651Z,19.60
2023-05-22T17:53:17.811Z,19.60
2023-05-22T17:56:20.682Z,19.60
2023-05-22T17:59:22.670Z,19.60
2023-05-22T18:02:24.663Z,19.50
2023-05-22T18:05:28.537Z,19.50
2023-05-22T18:08:30.328Z,19.50
2023-05-22T18:11:32.410Z,19.50
2023-05-22T18:14:34.170Z,19.40
2023-05-22T18:17:36.279Z,19.40
2023-05-22T18:20:38.269Z,19.40
2023-05-22T18:23:40.986Z,19.30
2023-05-22T18:26:43.058Z,19.30
2023-05-22T18:29:45.744Z,19.20
2023-05-22T18:32:47.992Z,19.10
2023-05-22T18:35:50.919Z,19.00
2023-05-22T18:38:52.739Z,19.00
2023-05-22T18:41:54.684Z,18.90
2023-05-22T18:44:58.581Z,18.80
2023-05-22T18:48:00.585Z,18.80
2023-05-22T18:51:04.015Z,18.80
2023-05-22T18:54:08.607Z,18.70
2023-05-22T18:57:10.421Z,18.60
2023-05-22T19:00:13.506Z,18.60
2023-05-22T19:03:15.505Z,18.60
2023-05-22T19:06:19.067Z,18.60
2023-05-22T19:09:23.115Z,18.60
2023-05-22T19:12:28.404Z,18.50
2023-05-22T19:15:30.658Z,18.50
2023-05-22T19:18:32.501Z,18.50
2023-05-22T19:21:34.602Z,18.40
2023-05-22T19:24:36.779Z,18.40
2023-05-22T19:27:39.392Z,18.30
2023-05-22T19:30:42.807Z,18.30
2023-05-22T19:33:44.981Z,18.30
2023-05-22T19:36:50.341Z,18.10
2023-05-22T19:39:52.102Z,18.10
2023-05-22T19:42:55.400Z,18.10
2023-05-22T19:45:58.147Z,18.00
2023-05-22T19:48:59.991Z,18.00
2023-05-22T19:52:02.369Z,17.90
2023-05-22T19:55:05.174Z,17.90
2023-05-22T19:58:07.029Z,17.90
2023-05-22T20:01:09.188Z,17.80
2023-05-22T20:04:11.055Z,17.80
2023-05-22T20:07:13.634Z,17.70
2023-05-22T20:10:16.197Z,17.80
2023-05-22T20:13:18.853Z,17.70
2023-05-22T20:16:20.959Z,17.70
2023-05-22T20:19:24.257Z,17.70
2023-05-22T20:22:27.352Z,17.70
2023-05-22T20:25:35.412Z,17.60
2023-05-22T20:28:37.399Z,17.60
2023-05-22T20:31:41.305Z,17.60
2023-05-22T20:34:45.085Z,17.60
2023-05-22T20:37:47.503Z,17.50
2023-05-22T20:40:49.847Z,17.50
2023-05-22T20:43:54.409Z,17.40
2023-05-22T20:46:56.298Z,17.30
2023-05-22T20:49:59.041Z,17.30
2023-05-22T20:53:01.938Z,17.30
2023-05-22T20:56:04.817Z,17.20
2023-05-22T20:59:06.730Z,17.20
2023-05-22T21:02:08.657Z,17.20
2023-05-22T21:05:10.591Z,17.20
2023-05-22T21:08:17.209Z,17.20
2023-05-22T21:11:19.269Z,17.10
2023-05-22T21:14:21.254Z,17.20
2023-05-22T21:17:24.534Z,17.20
2023-05-22T21:20:26.813Z,17.10
2023-05-22T21:23:28.922Z,17.00
2023-05-22T21:26:31.553Z,17.00
2023-05-22T21:29:33.681Z,17.00
2023-05-22T21:32:35.723Z,16.90
2023-05-22T21:35:37.614Z,16.90
2023-05-22T21:38:40.261Z,16.90
2023-05-22T21:41:42.277Z,16.80
2023-05-22T21:44:44.128Z,16.80
2023-05-22T21:47:46.306Z,16.80
2023-05-22T21:50:54.821Z,16.80
2023-05-22T21:54:03.469Z,16.70
2023-05-22T21:57:06.984Z,16.70
2023-05-22T22:00:09.301Z,16.70
2023-05-22T22:03:18.170Z,16.60
2023-05-22T22:06:20.377Z,16.60
2023-05-22T22:09:23.128Z,16.60
2023-05-22T22:12:24.972Z,16.50
2023-05-22T22:15:26.806Z,16.40
2023-05-22T22:18:32.311Z,16.50
2023-05-22T22:21:35.037Z,16.50
2023-05-22T22:24:37.049Z,16.50
2023-05-22T22:27:39.078Z,16.40
2023-05-22T22:30:41.301Z,16.40
2023-05-22T22:33:43.293Z,16.40
2023-05-22T22:36:45.652Z,16.40
2023-05-22T22:39:48.013Z,16.40
2023-05-22T22:42:49.925Z,16.40
2023-05-22T22:45:52.773Z,16.40
2023-05-22T22:48:55.574Z,16.40
2023-05-22T22:52:00.278Z,16.30
2023-05-22T22:55:02.099Z,16.40
2023-05-22T22:58:04.484Z,16.40
2023-05-22T23:01:06.662Z,16.40
2023-05-22T23:04:09.383Z,16.30
2023-05-22T23:07:11.468Z,16.40
2023-05-22T23:10:19.181Z,16.40
2023-05-22T23:13:21.188Z,16.40
2023-05-22T23:16:25.080Z,16.40
2023-05-22T23:19:27.694Z,16.40
2023-05-22T23:22:30.069Z,16.40
2023-05-22T23:25:31.834Z,16.40
2023-05-22T23:28:34.828Z,16.30
2023-05-22T23:31:44.020Z,16.40
2023-05-22T23:34:50.586Z,16.40
2023-05-22T23:37:52.565Z,16.40
2023-05-22T23:40:54.544Z,16.50
2023-05-22T23:43:56.381Z,16.40
2023-05-22T23:46:59.146Z,16.30
2023-05-22T23:50:01.308Z,16.30
2023-05-22T23:53:03.296Z,16.20
2023-05-22T23:56:05.446Z,16.20
2023-05-22T23:59:08.103Z,16.20
